sensor_id;sensor_type;location;lat;lon;timestamp;P1;durP1;ratioP1;P2;durP2;ratioP2
14892;SDS011;7538;53.626;9.906;2023-01-28T00:00:46;3.67;;;2.13;;
14892;SDS011;7538;53.626;9.906;2023-01-28T00:03:13;2.87;;;2.47;;
14892;SDS011;7538;53.626;9.906;2023-01-28T00:05:40;5.70;;;2.57;;
14892;SDS011;7538;53.626;9.906;2023-01-28T00:08:09;5.10;;;2.90;;
14892;SDS011;7538;53.626;9.906;2023-01-28T00:10:37;4.03;;;2.50;;
14892;SDS011;7538;53.626;9.906;2023-01-28T00:13:04;4.33;;;3.30;;
14892;SDS011;7538;53.626;9.906;2023-01-28T00:15:31;3.40;;;2.43;;
14892;SDS011;7538;53.626;9.906;2023-01-28T00:17:58;2.60;;;2.13;;
14892;SDS011;7538;53.626;9.906;2023-01-28T00:20:25;2.60;;;1.90;;
14892;SDS011;7538;53.626;9.906;2023-01-28T00:22:52;3.93;;;2.40;;
14892;SDS011;7538;53.626;9.906;2023-01-28T00:25:20;2.93;;;2.37;;
14892;SDS011;7538;53.626;9.906;2023-01-28T00:27:48;3.50;;;2.13;;
14892;SDS011;7538;53.626;9.906;2023-01-28T00:30:15;3.60;;;2.37;;
14892;SDS011;7538;53.626;9.906;2023-01-28T00:32:42;2.90;;;2.20;;
14892;SDS011;7538;53.626;9.906;2023-01-28T00:35:09;3.40;;;2.40;;
14892;SDS011;7538;53.626;9.906;2023-01-28T00:37:37;4.03;;;2.30;;
14892;SDS011;7538;53.626;9.906;2023-01-28T00:40:04;5.30;;;2.30;;
14892;SDS011;7538;53.626;9.906;2023-01-28T00:42:35;3.20;;;2.73;;
14892;SDS011;7538;53.626;9.906;2023-01-28T00:45:02;3.70;;;2.90;;
14892;SDS011;7538;53.626;9.906;2023-01-28T00:47:29;5.53;;;4.03;;
14892;SDS011;7538;53.626;9.906;2023-01-28T00:49:56;6.83;;;4.33;;
14892;SDS011;7538;53.626;9.906;2023-01-28T00:52:23;9.23;;;5.00;;
14892;SDS011;7538;53.626;9.906;2023-01-28T00:54:49;9.10;;;5.13;;
14892;SDS011;7538;53.626;9.906;2023-01-28T00:57:16;8.13;;;4.73;;
14892;SDS011;7538;53.626;9.906;2023-01-28T00:59:44;8.97;;;4.50;;
14892;SDS011;7538;53.626;9.906;2023-01-28T01:02:11;8.03;;;4.20;;
14892;SDS011;7538;53.626;9.906;2023-01-28T01:04:38;6.30;;;3.93;;
14892;SDS011;7538;53.626;9.906;2023-01-28T01:07:05;6.70;;;3.97;;
14892;SDS011;7538;53.626;9.906;2023-01-28T01:09:32;6.90;;;4.20;;
14892;SDS011;7538;53.626;9.906;2023-01-28T01:11:59;6.87;;;3.80;;
14892;SDS011;7538;53.626;9.906;2023-01-28T01:14:26;7.63;;;3.83;;
14892;SDS011;7538;53.626;9.906;2023-01-28T01:16:54;4.10;;;3.30;;
14892;SDS011;7538;53.626;9.906;2023-01-28T01:19:21;6.20;;;3.80;;
14892;SDS011;7538;53.626;9.906;2023-01-28T01:21:48;6.87;;;3.60;;
14892;SDS011;7538;53.626;9.906;2023-01-28T01:24:15;6.93;;;3.90;;
14892;SDS011;7538;53.626;9.906;2023-01-28T01:26:41;7.87;;;4.90;;
14892;SDS011;7538;53.626;9.906;2023-01-28T01:29:08;11.73;;;4.90;;
14892;SDS011;7538;53.626;9.906;2023-01-28T01:31:35;11.90;;;5.63;;
14892;SDS011;7538;53.626;9.906;2023-01-28T01:34:03;14.97;;;6.27;;
14892;SDS011;7538;53.626;9.906;2023-01-28T01:36:30;15.10;;;5.90;;
14892;SDS011;7538;53.626;9.906;2023-01-28T01:38:57;12.53;;;5.97;;
14892;SDS011;7538;53.626;9.906;2023-01-28T01:41:25;13.50;;;5.83;;
14892;SDS011;7538;53.626;9.906;2023-01-28T01:43:54;13.13;;;5.63;;
14892;SDS011;7538;53.626;9.906;2023-01-28T01:46:23;8.97;;;4.47;;
14892;SDS011;7538;53.626;9.906;2023-01-28T01:48:55;8.17;;;3.97;;
14892;SDS011;7538;53.626;9.906;2023-01-28T01:51:29;5.60;;;3.87;;
14892;SDS011;7538;53.626;9.906;2023-01-28T01:53:59;6.50;;;3.53;;
14892;SDS011;7538;53.626;9.906;2023-01-28T01:56:28;5.60;;;3.67;;
14892;SDS011;7538;53.626;9.906;2023-01-28T01:58:58;4.53;;;3.03;;
14892;SDS011;7538;53.626;9.906;2023-01-28T02:01:27;6.00;;;3.47;;
14892;SDS011;7538;53.626;9.906;2023-01-28T02:03:56;5.53;;;3.63;;
14892;SDS011;7538;53.626;9.906;2023-01-28T02:06:29;5.20;;;3.10;;
14892;SDS011;7538;53.626;9.906;2023-01-28T02:08:57;6.83;;;3.10;;
14892;SDS011;7538;53.626;9.906;2023-01-28T02:11:25;5.13;;;3.53;;
14892;SDS011;7538;53.626;9.906;2023-01-28T02:13:56;4.03;;;2.97;;
14892;SDS011;7538;53.626;9.906;2023-01-28T02:16:26;6.37;;;3.97;;
14892;SDS011;7538;53.626;9.906;2023-01-28T02:18:54;7.47;;;4.47;;
14892;SDS011;7538;53.626;9.906;2023-01-28T02:21:28;8.77;;;4.03;;
14892;SDS011;7538;53.626;9.906;2023-01-28T02:24:09;6.83;;;4.20;;
14892;SDS011;7538;53.626;9.906;2023-01-28T02:26:55;9.20;;;3.87;;
14892;SDS011;7538;53.626;9.906;2023-01-28T02:29:42;8.57;;;4.07;;
14892;SDS011;7538;53.626;9.906;2023-01-28T02:32:13;6.73;;;3.97;;
14892;SDS011;7538;53.626;9.906;2023-01-28T02:34:45;5.50;;;3.63;;
14892;SDS011;7538;53.626;9.906;2023-01-28T02:37:16;5.10;;;3.33;;
14892;SDS011;7538;53.626;9.906;2023-01-28T02:39:48;7.60;;;3.83;;
14892;SDS011;7538;53.626;9.906;2023-01-28T02:42:18;4.33;;;2.90;;
14892;SDS011;7538;53.626;9.906;2023-01-28T02:44:50;5.43;;;2.97;;
14892;SDS011;7538;53.626;9.906;2023-01-28T02:47:16;4.90;;;3.30;;
14892;SDS011;7538;53.626;9.906;2023-01-28T02:50:02;3.97;;;3.33;;
14892;SDS011;7538;53.626;9.906;2023-01-28T02:52:36;4.57;;;3.00;;
14892;SDS011;7538;53.626;9.906;2023-01-28T02:55:44;4.07;;;2.77;;
14892;SDS011;7538;53.626;9.906;2023-01-28T02:58:22;4.37;;;3.10;;
14892;SDS011;7538;53.626;9.906;2023-01-28T03:01:02;3.37;;;2.67;;
14892;SDS011;7538;53.626;9.906;2023-01-28T03:03:38;4.03;;;2.90;;
14892;SDS011;7538;53.626;9.906;2023-01-28T03:06:13;5.23;;;2.97;;
14892;SDS011;7538;53.626;9.906;2023-01-28T03:08:44;4.40;;;2.67;;
14892;SDS011;7538;53.626;9.906;2023-01-28T03:11:38;3.73;;;2.80;;
14892;SDS011;7538;53.626;9.906;2023-01-28T03:14:24;3.47;;;2.90;;
14892;SDS011;7538;53.626;9.906;2023-01-28T03:17:13;4.30;;;2.67;;
14892;SDS011;7538;53.626;9.906;2023-01-28T03:20:01;4.53;;;3.20;;
14892;SDS011;7538;53.626;9.906;2023-01-28T03:22:47;4.57;;;3.07;;
14892;SDS011;7538;53.626;9.906;2023-01-28T03:25:35;4.60;;;2.77;;
14892;SDS011;7538;53.626;9.906;2023-01-28T03:28:23;4.47;;;2.70;;
14892;SDS011;7538;53.626;9.906;2023-01-28T03:31:09;3.90;;;2.87;;
14892;SDS011;7538;53.626;9.906;2023-01-28T03:33:57;6.80;;;3.17;;
14892;SDS011;7538;53.626;9.906;2023-01-28T03:36:43;5.07;;;3.17;;
14892;SDS011;7538;53.626;9.906;2023-01-28T03:39:14;5.23;;;2.97;;
14892;SDS011;7538;53.626;9.906;2023-01-28T03:41:42;3.70;;;3.00;;
14892;SDS011;7538;53.626;9.906;2023-01-28T03:44:21;5.30;;;2.90;;
14892;SDS011;7538;53.626;9.906;2023-01-28T03:47:06;4.37;;;2.70;;
14892;SDS011;7538;53.626;9.906;2023-01-28T03:49:36;5.00;;;2.97;;
14892;SDS011;7538;53.626;9.906;2023-01-28T03:52:04;4.10;;;3.07;;
14892;SDS011;7538;53.626;9.906;2023-01-28T03:54:30;3.20;;;2.90;;
14892;SDS011;7538;53.626;9.906;2023-01-28T03:56:57;4.73;;;3.00;;
14892;SDS011;7538;53.626;9.906;2023-01-28T03:59:24;4.03;;;2.83;;
14892;SDS011;7538;53.626;9.906;2023-01-28T04:01:51;5.30;;;2.83;;
14892;SDS011;7538;53.626;9.906;2023-01-28T04:04:19;6.37;;;3.33;;
14892;SDS011;7538;53.626;9.906;2023-01-28T04:06:50;4.00;;;3.20;;
14892;SDS011;7538;53.626;9.906;2023-01-28T04:09:17;6.30;;;4.00;;
14892;SDS011;7538;53.626;9.906;2023-01-28T04:11:45;6.33;;;3.77;;
14892;SDS011;7538;53.626;9.906;2023-01-28T04:14:12;5.43;;;4.03;;
14892;SDS011;7538;53.626;9.906;2023-01-28T04:16:39;6.60;;;3.63;;
14892;SDS011;7538;53.626;9.906;2023-01-28T04:19:06;5.07;;;3.83;;
14892;SDS011;7538;53.626;9.906;2023-01-28T04:21:33;5.47;;;3.87;;
14892;SDS011;7538;53.626;9.906;2023-01-28T04:24:02;6.23;;;4.30;;
14892;SDS011;7538;53.626;9.906;2023-01-28T04:26:29;5.40;;;4.03;;
14892;SDS011;7538;53.626;9.906;2023-01-28T04:28:56;5.40;;;4.27;;
14892;SDS011;7538;53.626;9.906;2023-01-28T04:31:23;5.03;;;3.67;;
14892;SDS011;7538;53.626;9.906;2023-01-28T04:33:49;5.03;;;4.53;;
14892;SDS011;7538;53.626;9.906;2023-01-28T04:36:16;4.77;;;3.67;;
14892;SDS011;7538;53.626;9.906;2023-01-28T04:38:43;6.27;;;3.90;;
14892;SDS011;7538;53.626;9.906;2023-01-28T04:41:11;6.70;;;3.93;;
14892;SDS011;7538;53.626;9.906;2023-01-28T04:43:38;4.30;;;3.30;;
14892;SDS011;7538;53.626;9.906;2023-01-28T04:46:05;4.87;;;4.33;;
14892;SDS011;7538;53.626;9.906;2023-01-28T04:48:32;4.53;;;3.53;;
14892;SDS011;7538;53.626;9.906;2023-01-28T04:51:00;4.80;;;3.67;;
14892;SDS011;7538;53.626;9.906;2023-01-28T04:53:27;6.60;;;4.13;;
14892;SDS011;7538;53.626;9.906;2023-01-28T04:55:54;6.10;;;4.03;;
14892;SDS011;7538;53.626;9.906;2023-01-28T04:58:22;6.07;;;4.00;;
14892;SDS011;7538;53.626;9.906;2023-01-28T05:00:52;3.93;;;3.50;;
14892;SDS011;7538;53.626;9.906;2023-01-28T05:03:20;6.23;;;3.87;;
14892;SDS011;7538;53.626;9.906;2023-01-28T05:05:47;3.97;;;3.57;;
14892;SDS011;7538;53.626;9.906;2023-01-28T05:08:14;5.40;;;3.60;;
14892;SDS011;7538;53.626;9.906;2023-01-28T05:10:41;4.37;;;3.70;;
14892;SDS011;7538;53.626;9.906;2023-01-28T05:13:07;5.23;;;3.80;;
14892;SDS011;7538;53.626;9.906;2023-01-28T05:15:36;4.67;;;3.50;;
14892;SDS011;7538;53.626;9.906;2023-01-28T05:18:03;4.97;;;3.80;;
14892;SDS011;7538;53.626;9.906;2023-01-28T05:20:29;4.93;;;3.90;;
14892;SDS011;7538;53.626;9.906;2023-01-28T05:22:56;4.93;;;3.93;;
14892;SDS011;7538;53.626;9.906;2023-01-28T05:25:23;4.07;;;3.60;;
14892;SDS011;7538;53.626;9.906;2023-01-28T05:27:51;6.83;;;4.00;;
14892;SDS011;7538;53.626;9.906;2023-01-28T05:30:18;4.70;;;3.53;;
14892;SDS011;7538;53.626;9.906;2023-01-28T05:32:47;6.27;;;3.87;;
14892;SDS011;7538;53.626;9.906;2023-01-28T05:35:14;5.63;;;4.20;;
14892;SDS011;7538;53.626;9.906;2023-01-28T05:37:41;5.90;;;4.03;;
14892;SDS011;7538;53.626;9.906;2023-01-28T05:40:08;7.40;;;3.90;;
14892;SDS011;7538;53.626;9.906;2023-01-28T05:42:36;6.37;;;3.37;;
14892;SDS011;7538;53.626;9.906;2023-01-28T05:45:03;3.90;;;3.47;;
14892;SDS011;7538;53.626;9.906;2023-01-28T05:47:30;5.83;;;4.17;;
14892;SDS011;7538;53.626;9.906;2023-01-28T05:49:59;5.67;;;4.13;;
14892;SDS011;7538;53.626;9.906;2023-01-28T05:52:26;5.23;;;4.03;;
14892;SDS011;7538;53.626;9.906;2023-01-28T05:54:53;5.73;;;4.30;;
14892;SDS011;7538;53.626;9.906;2023-01-28T05:57:19;4.43;;;3.97;;
14892;SDS011;7538;53.626;9.906;2023-01-28T05:59:46;5.07;;;4.17;;
14892;SDS011;7538;53.626;9.906;2023-01-28T06:02:13;5.27;;;4.40;;
14892;SDS011;7538;53.626;9.906;2023-01-28T06:04:40;5.67;;;4.90;;
14892;SDS011;7538;53.626;9.906;2023-01-28T06:07:08;4.77;;;4.10;;
14892;SDS011;7538;53.626;9.906;2023-01-28T06:09:37;5.77;;;4.57;;
14892;SDS011;7538;53.626;9.906;2023-01-28T06:12:04;6.73;;;4.73;;
14892;SDS011;7538;53.626;9.906;2023-01-28T06:14:31;7.43;;;4.80;;
14892;SDS011;7538;53.626;9.906;2023-01-28T06:16:58;6.43;;;4.97;;
14892;SDS011;7538;53.626;9.906;2023-01-28T06:19:24;7.73;;;5.60;;
14892;SDS011;7538;53.626;9.906;2023-01-28T06:21:51;7.73;;;5.63;;
14892;SDS011;7538;53.626;9.906;2023-01-28T06:24:19;7.23;;;6.47;;
14892;SDS011;7538;53.626;9.906;2023-01-28T06:26:46;7.50;;;6.10;;
14892;SDS011;7538;53.626;9.906;2023-01-28T06:29:13;8.00;;;6.90;;
14892;SDS011;7538;53.626;9.906;2023-01-28T06:31:40;12.07;;;9.33;;
14892;SDS011;7538;53.626;9.906;2023-01-28T06:34:07;15.00;;;10.30;;
14892;SDS011;7538;53.626;9.906;2023-01-28T06:36:34;13.67;;;10.40;;
14892;SDS011;7538;53.626;9.906;2023-01-28T06:39:02;13.33;;;10.20;;
14892;SDS011;7538;53.626;9.906;2023-01-28T06:41:30;12.43;;;9.70;;
14892;SDS011;7538;53.626;9.906;2023-01-28T06:43:57;11.03;;;9.23;;
14892;SDS011;7538;53.626;9.906;2023-01-28T06:46:24;13.13;;;9.03;;
14892;SDS011;7538;53.626;9.906;2023-01-28T06:48:51;11.00;;;8.73;;
14892;SDS011;7538;53.626;9.906;2023-01-28T06:51:17;9.33;;;8.27;;
14892;SDS011;7538;53.626;9.906;2023-01-28T06:53:44;11.60;;;9.17;;
14892;SDS011;7538;53.626;9.906;2023-01-28T06:56:11;10.07;;;9.07;;
14892;SDS011;7538;53.626;9.906;2023-01-28T06:58:39;11.00;;;8.77;;
14892;SDS011;7538;53.626;9.906;2023-01-28T07:01:06;12.17;;;8.37;;
14892;SDS011;7538;53.626;9.906;2023-01-28T07:03:33;9.67;;;7.73;;
14892;SDS011;7538;53.626;9.906;2023-01-28T07:06:01;10.20;;;7.53;;
14892;SDS011;7538;53.626;9.906;2023-01-28T07:08:28;9.03;;;7.80;;
14892;SDS011;7538;53.626;9.906;2023-01-28T07:10:55;8.37;;;7.43;;
14892;SDS011;7538;53.626;9.906;2023-01-28T07:13:22;8.43;;;7.40;;
14892;SDS011;7538;53.626;9.906;2023-01-28T07:15:50;11.57;;;7.17;;
14892;SDS011;7538;53.626;9.906;2023-01-28T07:18:17;10.70;;;8.30;;
14892;SDS011;7538;53.626;9.906;2023-01-28T07:20:43;9.60;;;7.40;;
14892;SDS011;7538;53.626;9.906;2023-01-28T07:23:10;8.57;;;7.47;;
14892;SDS011;7538;53.626;9.906;2023-01-28T07:25:37;9.10;;;7.50;;
14892;SDS011;7538;53.626;9.906;2023-01-28T07:28:04;12.40;;;8.10;;
14892;SDS011;7538;53.626;9.906;2023-01-28T07:30:31;9.63;;;8.13;;
14892;SDS011;7538;53.626;9.906;2023-01-28T07:32:59;12.13;;;7.73;;
14892;SDS011;7538;53.626;9.906;2023-01-28T07:35:26;9.57;;;7.93;;
14892;SDS011;7538;53.626;9.906;2023-01-28T07:37:54;10.60;;;8.80;;
14892;SDS011;7538;53.626;9.906;2023-01-28T07:40:22;11.10;;;8.80;;
14892;SDS011;7538;53.626;9.906;2023-01-28T07:42:50;11.17;;;8.70;;
14892;SDS011;7538;53.626;9.906;2023-01-28T07:45:19;12.57;;;8.67;;
14892;SDS011;7538;53.626;9.906;2023-01-28T07:47:52;10.37;;;8.47;;
14892;SDS011;7538;53.626;9.906;2023-01-28T07:50:21;9.93;;;9.00;;
14892;SDS011;7538;53.626;9.906;2023-01-28T07:52:48;9.73;;;8.73;;
14892;SDS011;7538;53.626;9.906;2023-01-28T07:55:14;10.07;;;8.63;;
14892;SDS011;7538;53.626;9.906;2023-01-28T07:57:48;11.87;;;9.20;;
14892;SDS011;7538;53.626;9.906;2023-01-28T08:00:16;11.33;;;9.50;;
14892;SDS011;7538;53.626;9.906;2023-01-28T08:02:44;12.07;;;9.47;;
14892;SDS011;7538;53.626;9.906;2023-01-28T08:05:12;11.93;;;9.13;;
14892;SDS011;7538;53.626;9.906;2023-01-28T08:07:41;13.90;;;10.60;;
14892;SDS011;7538;53.626;9.906;2023-01-28T08:10:08;12.57;;;9.77;;
14892;SDS011;7538;53.626;9.906;2023-01-28T08:12:36;13.93;;;10.43;;
14892;SDS011;7538;53.626;9.906;2023-01-28T08:15:03;12.77;;;10.37;;
14892;SDS011;7538;53.626;9.906;2023-01-28T08:17:31;13.50;;;10.10;;
14892;SDS011;7538;53.626;9.906;2023-01-28T08:19:58;12.73;;;10.30;;
14892;SDS011;7538;53.626;9.906;2023-01-28T08:22:25;12.00;;;9.90;;
14892;SDS011;7538;53.626;9.906;2023-01-28T08:24:54;11.27;;;9.57;;
14892;SDS011;7538;53.626;9.906;2023-01-28T08:27:21;12.57;;;10.17;;
14892;SDS011;7538;53.626;9.906;2023-01-28T08:29:47;12.47;;;10.60;;
14892;SDS011;7538;53.626;9.906;2023-01-28T08:32:14;11.77;;;9.23;;
14892;SDS011;7538;53.626;9.906;2023-01-28T08:34:41;13.27;;;10.00;;
14892;SDS011;7538;53.626;9.906;2023-01-28T08:37:08;12.40;;;8.87;;
14892;SDS011;7538;53.626;9.906;2023-01-28T08:39:35;11.30;;;10.10;;
14892;SDS011;7538;53.626;9.906;2023-01-28T08:42:03;13.23;;;9.87;;
14892;SDS011;7538;53.626;9.906;2023-01-28T08:44:31;10.67;;;8.93;;
14892;SDS011;7538;53.626;9.906;2023-01-28T08:46:58;12.70;;;9.10;;
14892;SDS011;7538;53.626;9.906;2023-01-28T08:49:25;12.93;;;10.10;;
14892;SDS011;7538;53.626;9.906;2023-01-28T08:51:51;11.77;;;10.57;;
14892;SDS011;7538;53.626;9.906;2023-01-28T08:54:19;11.77;;;9.87;;
14892;SDS011;7538;53.626;9.906;2023-01-28T08:56:46;10.37;;;8.70;;
14892;SDS011;7538;53.626;9.906;2023-01-28T08:59:14;12.20;;;9.50;;
14892;SDS011;7538;53.626;9.906;2023-01-28T09:01:41;9.93;;;8.60;;
14892;SDS011;7538;53.626;9.906;2023-01-28T09:04:08;9.83;;;8.13;;
14892;SDS011;7538;53.626;9.906;2023-01-28T09:06:35;10.37;;;8.03;;
14892;SDS011;7538;53.626;9.906;2023-01-28T09:09:02;11.33;;;8.90;;
14892;SDS011;7538;53.626;9.906;2023-01-28T09:11:29;9.43;;;7.53;;
14892;SDS011;7538;53.626;9.906;2023-01-28T09:13:56;8.20;;;7.43;;
14892;SDS011;7538;53.626;9.906;2023-01-28T09:16:24;8.00;;;6.90;;
14892;SDS011;7538;53.626;9.906;2023-01-28T09:18:51;10.17;;;7.40;;
14892;SDS011;7538;53.626;9.906;2023-01-28T09:21:18;7.23;;;6.57;;
14892;SDS011;7538;53.626;9.906;2023-01-28T09:23:45;7.97;;;6.40;;
14892;SDS011;7538;53.626;9.906;2023-01-28T09:26:11;7.70;;;6.70;;
14892;SDS011;7538;53.626;9.906;2023-01-28T09:28:38;6.93;;;6.23;;
14892;SDS011;7538;53.626;9.906;2023-01-28T09:31:06;7.07;;;6.25;;
14892;SDS011;7538;53.626;9.906;2023-01-28T09:33:35;6.27;;;5.67;;
14892;SDS011;7538;53.626;9.906;2023-01-28T09:36:04;6.30;;;5.33;;
14892;SDS011;7538;53.626;9.906;2023-01-28T09:38:32;8.73;;;6.57;;
14892;SDS011;7538;53.626;9.906;2023-01-28T09:41:00;6.85;;;5.75;;
14892;SDS011;7538;53.626;9.906;2023-01-28T09:43:39;6.00;;;5.40;;
14892;SDS011;7538;53.626;9.906;2023-01-28T09:46:21;6.20;;;5.70;;
14892;SDS011;7538;53.626;9.906;2023-01-28T09:48:55;9.70;;;6.88;;
14892;SDS011;7538;53.626;9.906;2023-01-28T09:51:30;8.05;;;7.13;;
14892;SDS011;7538;53.626;9.906;2023-01-28T09:54:02;5.95;;;5.35;;
14892;SDS011;7538;53.626;9.906;2023-01-28T09:56:33;6.35;;;5.63;;
14892;SDS011;7538;53.626;9.906;2023-01-28T09:59:09;6.82;;;5.80;;
14892;SDS011;7538;53.626;9.906;2023-01-28T10:01:44;8.60;;;5.88;;
14892;SDS011;7538;53.626;9.906;2023-01-28T10:04:22;6.80;;;6.25;;
14892;SDS011;7538;53.626;9.906;2023-01-28T10:07:03;7.18;;;6.47;;
14892;SDS011;7538;53.626;9.906;2023-01-28T10:09:47;6.25;;;5.65;;
14892;SDS011;7538;53.626;9.906;2023-01-28T10:12:30;7.07;;;6.38;;
14892;SDS011;7538;53.626;9.906;2023-01-28T10:15:20;6.55;;;5.97;;
14892;SDS011;7538;53.626;9.906;2023-01-28T10:18:12;7.40;;;6.78;;
14892;SDS011;7538;53.626;9.906;2023-01-28T10:20:42;8.02;;;7.32;;
14892;SDS011;7538;53.626;9.906;2023-01-28T10:23:13;7.47;;;6.78;;
14892;SDS011;7538;53.626;9.906;2023-01-28T10:25:45;7.63;;;6.95;;
14892;SDS011;7538;53.626;9.906;2023-01-28T10:28:15;7.70;;;7.05;;
14892;SDS011;7538;53.626;9.906;2023-01-28T10:30:44;7.38;;;6.70;;
14892;SDS011;7538;53.626;9.906;2023-01-28T10:33:15;8.15;;;7.35;;
14892;SDS011;7538;53.626;9.906;2023-01-28T10:35:45;7.75;;;7.05;;
14892;SDS011;7538;53.626;9.906;2023-01-28T10:38:12;8.85;;;8.05;;
14892;SDS011;7538;53.626;9.906;2023-01-28T10:40:41;8.43;;;7.65;;
14892;SDS011;7538;53.626;9.906;2023-01-28T10:43:08;9.07;;;7.60;;
14892;SDS011;7538;53.626;9.906;2023-01-28T10:45:36;10.10;;;8.98;;
14892;SDS011;7538;53.626;9.906;2023-01-28T10:48:12;8.93;;;8.13;;
14892;SDS011;7538;53.626;9.906;2023-01-28T10:50:50;8.25;;;7.50;;
14892;SDS011;7538;53.626;9.906;2023-01-28T10:53:18;8.93;;;8.02;;
14892;SDS011;7538;53.626;9.906;2023-01-28T10:55:48;7.85;;;7.05;;
14892;SDS011;7538;53.626;9.906;2023-01-28T10:58:18;8.18;;;7.32;;
14892;SDS011;7538;53.626;9.906;2023-01-28T11:00:51;7.65;;;6.85;;
14892;SDS011;7538;53.626;9.906;2023-01-28T11:03:19;9.40;;;7.97;;
14892;SDS011;7538;53.626;9.906;2023-01-28T11:05:51;8.00;;;7.30;;
14892;SDS011;7538;53.626;9.906;2023-01-28T11:08:20;8.53;;;7.43;;
14892;SDS011;7538;53.626;9.906;2023-01-28T11:10:49;10.07;;;7.20;;
14892;SDS011;7538;53.626;9.906;2023-01-28T11:13:17;7.93;;;7.23;;
14892;SDS011;7538;53.626;9.906;2023-01-28T11:15:45;8.27;;;7.37;;
14892;SDS011;7538;53.626;9.906;2023-01-28T11:18:15;9.07;;;6.80;;
14892;SDS011;7538;53.626;9.906;2023-01-28T11:20:48;10.17;;;7.83;;
14892;SDS011;7538;53.626;9.906;2023-01-28T11:23:19;9.20;;;7.67;;
14892;SDS011;7538;53.626;9.906;2023-01-28T11:25:48;9.20;;;7.63;;
14892;SDS011;7538;53.626;9.906;2023-01-28T11:28:24;9.87;;;8.80;;
14892;SDS011;7538;53.626;9.906;2023-01-28T11:30:51;9.73;;;8.43;;
14892;SDS011;7538;53.626;9.906;2023-01-28T11:33:30;8.33;;;7.50;;
14892;SDS011;7538;53.626;9.906;2023-01-28T11:36:04;9.93;;;8.70;;
14892;SDS011;7538;53.626;9.906;2023-01-28T11:38:33;8.00;;;7.30;;
14892;SDS011;7538;53.626;9.906;2023-01-28T11:41:00;9.67;;;7.40;;
14892;SDS011;7538;53.626;9.906;2023-01-28T11:43:28;7.93;;;7.23;;
14892;SDS011;7538;53.626;9.906;2023-01-28T11:45:58;9.03;;;8.10;;
14892;SDS011;7538;53.626;9.906;2023-01-28T11:48:40;8.93;;;8.07;;
14892;SDS011;7538;53.626;9.906;2023-01-28T11:51:20;9.70;;;8.80;;
14892;SDS011;7538;53.626;9.906;2023-01-28T11:56:49;10.23;;;8.33;;
14892;SDS011;7538;53.626;9.906;2023-01-28T11:59:31;8.77;;;6.87;;
14892;SDS011;7538;53.626;9.906;2023-01-28T12:02:22;10.53;;;9.43;;
14892;SDS011;7538;53.626;9.906;2023-01-28T12:05:05;9.37;;;8.03;;
14892;SDS011;7538;53.626;9.906;2023-01-28T12:07:44;9.70;;;8.80;;
14892;SDS011;7538;53.626;9.906;2023-01-28T12:10:17;9.33;;;8.43;;
14892;SDS011;7538;53.626;9.906;2023-01-28T12:13:03;9.83;;;8.53;;
14892;SDS011;7538;53.626;9.906;2023-01-28T12:18:57;9.63;;;8.63;;
14892;SDS011;7538;53.626;9.906;2023-01-28T12:21:41;9.27;;;8.37;;
14892;SDS011;7538;53.626;9.906;2023-01-28T12:24:25;10.13;;;9.13;;
14892;SDS011;7538;53.626;9.906;2023-01-28T12:27:05;9.77;;;8.80;;
14892;SDS011;7538;53.626;9.906;2023-01-28T12:29:43;12.00;;;9.17;;
14892;SDS011;7538;53.626;9.906;2023-01-28T12:32:19;10.10;;;9.00;;
14892;SDS011;7538;53.626;9.906;2023-01-28T12:38:01;9.47;;;8.47;;
14892;SDS011;7538;53.626;9.906;2023-01-28T12:43:32;10.53;;;9.40;;
14892;SDS011;7538;53.626;9.906;2023-01-28T12:46:24;11.70;;;9.17;;
14892;SDS011;7538;53.626;9.906;2023-01-28T12:48:58;12.27;;;10.43;;
14892;SDS011;7538;53.626;9.906;2023-01-28T12:51:31;12.13;;;9.83;;
14892;SDS011;7538;53.626;9.906;2023-01-28T12:54:03;10.63;;;9.53;;
14892;SDS011;7538;53.626;9.906;2023-01-28T12:56:37;11.13;;;10.00;;
14892;SDS011;7538;53.626;9.906;2023-01-28T12:59:09;11.30;;;9.83;;
14892;SDS011;7538;53.626;9.906;2023-01-28T13:01:41;9.90;;;8.90;;
14892;SDS011;7538;53.626;9.906;2023-01-28T13:04:12;11.40;;;10.03;;
14892;SDS011;7538;53.626;9.906;2023-01-28T13:06:46;10.90;;;9.70;;
14892;SDS011;7538;53.626;9.906;2023-01-28T13:09:16;11.60;;;10.10;;
14892;SDS011;7538;53.626;9.906;2023-01-28T13:11:47;11.80;;;10.60;;
14892;SDS011;7538;53.626;9.906;2023-01-28T13:14:18;11.83;;;10.33;;
14892;SDS011;7538;53.626;9.906;2023-01-28T13:16:48;12.53;;;11.33;;
14892;SDS011;7538;53.626;9.906;2023-01-28T13:19:20;11.93;;;10.70;;
14892;SDS011;7538;53.626;9.906;2023-01-28T13:21:49;11.43;;;10.23;;
14892;SDS011;7538;53.626;9.906;2023-01-28T13:24:20;14.17;;;11.33;;
14892;SDS011;7538;53.626;9.906;2023-01-28T13:27:08;12.77;;;10.27;;
14892;SDS011;7538;53.626;9.906;2023-01-28T13:29:37;14.50;;;11.57;;
14892;SDS011;7538;53.626;9.906;2023-01-28T13:34:56;13.00;;;11.00;;
14892;SDS011;7538;53.626;9.906;2023-01-28T13:37:27;14.93;;;12.37;;
14892;SDS011;7538;53.626;9.906;2023-01-28T13:39:58;15.50;;;11.80;;
14892;SDS011;7538;53.626;9.906;2023-01-28T13:42:34;15.53;;;11.53;;
14892;SDS011;7538;53.626;9.906;2023-01-28T13:45:17;12.43;;;11.20;;
14892;SDS011;7538;53.626;9.906;2023-01-28T13:47:48;11.57;;;10.37;;
14892;SDS011;7538;53.626;9.906;2023-01-28T13:50:17;12.70;;;11.40;;
14892;SDS011;7538;53.626;9.906;2023-01-28T13:52:49;12.67;;;10.87;;
14892;SDS011;7538;53.626;9.906;2023-01-28T13:55:20;12.47;;;10.93;;
14892;SDS011;7538;53.626;9.906;2023-01-28T13:58:09;15.70;;;12.37;;
14892;SDS011;7538;53.626;9.906;2023-01-28T14:01:11;13.17;;;11.77;;
14892;SDS011;7538;53.626;9.906;2023-01-28T14:03:56;12.07;;;10.77;;
14892;SDS011;7538;53.626;9.906;2023-01-28T14:06:49;13.27;;;10.63;;
14892;SDS011;7538;53.626;9.906;2023-01-28T14:12:39;13.47;;;10.23;;
14892;SDS011;7538;53.626;9.906;2023-01-28T14:15:39;12.43;;;10.77;;
14892;SDS011;7538;53.626;9.906;2023-01-28T14:18:34;13.10;;;11.30;;
14892;SDS011;7538;53.626;9.906;2023-01-28T14:21:07;14.83;;;11.53;;
14892;SDS011;7538;53.626;9.906;2023-01-28T14:23:36;13.17;;;10.47;;
14892;SDS011;7538;53.626;9.906;2023-01-28T14:26:13;15.93;;;12.13;;
14892;SDS011;7538;53.626;9.906;2023-01-28T14:28:51;13.47;;;11.37;;
14892;SDS011;7538;53.626;9.906;2023-01-28T14:31:30;15.13;;;11.47;;
14892;SDS011;7538;53.626;9.906;2023-01-28T14:34:02;12.77;;;11.23;;
14892;SDS011;7538;53.626;9.906;2023-01-28T14:36:35;12.03;;;10.17;;
14892;SDS011;7538;53.626;9.906;2023-01-28T14:39:04;12.43;;;11.10;;
14892;SDS011;7538;53.626;9.906;2023-01-28T14:41:36;13.33;;;11.00;;
14892;SDS011;7538;53.626;9.906;2023-01-28T14:44:03;12.10;;;10.63;;
14892;SDS011;7538;53.626;9.906;2023-01-28T14:46:36;11.90;;;10.37;;
14892;SDS011;7538;53.626;9.906;2023-01-28T14:49:12;10.60;;;9.50;;
14892;SDS011;7538;53.626;9.906;2023-01-28T14:52:01;13.00;;;9.13;;
14892;SDS011;7538;53.626;9.906;2023-01-28T14:54:43;12.90;;;9.53;;
14892;SDS011;7538;53.626;9.906;2023-01-28T14:57:27;11.73;;;10.20;;
14892;SDS011;7538;53.626;9.906;2023-01-28T15:00:14;14.07;;;11.00;;
14892;SDS011;7538;53.626;9.906;2023-01-28T15:02:46;14.37;;;10.77;;
14892;SDS011;7538;53.626;9.906;2023-01-28T15:05:14;13.30;;;10.37;;
14892;SDS011;7538;53.626;9.906;2023-01-28T15:07:43;11.27;;;9.93;;
14892;SDS011;7538;53.626;9.906;2023-01-28T15:10:13;11.87;;;9.33;;
14892;SDS011;7538;53.626;9.906;2023-01-28T15:12:43;14.47;;;11.10;;
14892;SDS011;7538;53.626;9.906;2023-01-28T15:15:16;13.67;;;10.00;;
14892;SDS011;7538;53.626;9.906;2023-01-28T15:17:50;14.37;;;11.27;;
14892;SDS011;7538;53.626;9.906;2023-01-28T15:20:19;12.57;;;10.53;;
14892;SDS011;7538;53.626;9.906;2023-01-28T15:22:48;12.10;;;10.60;;
14892;SDS011;7538;53.626;9.906;2023-01-28T15:25:17;12.20;;;10.47;;
14892;SDS011;7538;53.626;9.906;2023-01-28T15:27:45;14.23;;;10.87;;
14892;SDS011;7538;53.626;9.906;2023-01-28T15:30:19;14.60;;;11.17;;
14892;SDS011;7538;53.626;9.906;2023-01-28T15:32:56;13.73;;;10.67;;
14892;SDS011;7538;53.626;9.906;2023-01-28T15:35:28;13.40;;;10.80;;